Time;durP1;ratioP1;P1;durP2;ratioP2;P2;SDS_P1;SDS_P2;PMS_P1;PMS_P2;Temp;Humidity;BMP_temperature;BMP_pressure;BME280_temperature;BME280_humidity;BME280_pressure;Samples;Min_cycle;Max_cycle;Signal;HPM_P1;HPM_P2
2023/05/31 00:00:17;;;;;;;6.32;5.22;;;;;;;11.90;86.37;102359.66;5263264;28;20063;-68
2023/05/31 00:02:48;;;;;;;5.80;5.20;;;;;;;11.89;86.28;102364.88;5263341;28;20036;-67
2023/05/31 00:05:19;;;;;;;8.57;5.17;;;;;;;11.89;87.17;102360.50;5263157;28;20061;-67
2023/05/31 00:07:51;;;;;;;6.43;5.17;;;;;;;12.07;87.44;102366.75;5263177;28;20028;-68
2023/05/31 00:10:22;;;;;;;6.00;5.30;;;;;;;11.96;86.79;102369.28;5263056;28;20041;-68
2023/05/31 00:12:53;;;;;;;7.37;6.03;;;;;;;11.84;87.07;102365.69;5262823;28;20082;-67
2023/05/31 00:15:25;;;;;;;6.80;5.70;;;;;;;11.74;87.33;102363.91;5263207;28;20112;-68
2023/05/31 00:17:56;;;;;;;6.70;5.50;;;;;;;11.67;87.70;102365.59;5262664;28;20444;-66
2023/05/31 00:20:27;;;;;;;8.17;5.67;;;;;;;11.80;88.83;102363.94;5263092;28;20060;-67
2023/05/31 00:22:59;;;;;;;8.60;5.83;;;;;;;11.67;88.52;102368.19;5262865;28;20029;-67
2023/05/31 00:25:31;;;;;;;7.10;6.03;;;;;;;11.57;89.56;102361.13;5262801;28;20507;-67
2023/05/31 00:28:02;;;;;;;8.50;5.73;;;;;;;11.76;88.97;102361.28;5263168;28;20041;-67
2023/05/31 00:30:34;;;;;;;7.13;6.23;;;;;;;11.64;90.01;102362.06;5263014;28;20465;-67
2023/05/31 00:33:05;;;;;;;6.80;5.47;;;;;;;11.63;90.80;102366.41;5261609;28;20086;-67
2023/05/31 00:35:36;;;;;;;9.67;5.70;;;;;;;11.55;90.56;102373.31;5263086;28;20040;-66
2023/05/31 00:38:08;;;;;;;6.20;5.60;;;;;;;11.49;90.33;102360.19;5262094;28;20064;-68
2023/05/31 00:40:39;;;;;;;7.13;5.43;;;;;;;11.47;90.79;102360.19;5262849;28;20419;-67
2023/05/31 00:43:11;;;;;;;11.73;6.37;;;;;;;11.34;90.64;102358.34;5262588;28;20032;-66
2023/05/31 00:45:42;;;;;;;6.50;5.27;;;;;;;11.34;90.97;102358.34;5262677;28;20033;-67
2023/05/31 00:48:14;;;;;;;7.53;6.47;;;;;;;11.34;91.08;102366.16;5263043;28;20469;-67
2023/05/31 00:50:45;;;;;;;8.83;6.47;;;;;;;11.29;91.42;102371.34;5262647;28;20033;-67
2023/05/31 00:53:18;;;;;;;7.07;6.20;;;;;;;11.31;91.74;102364.38;5262545;28;20022;-66
2023/05/31 00:55:51;;;;;;;6.53;5.80;;;;;;;11.23;92.31;102370.41;5262254;28;20033;-68
2023/05/31 00:58:22;;;;;;;7.93;6.22;;;;;;;11.22;92.57;102371.25;5262369;28;20044;-68
2023/05/31 01:00:55;;;;;;;6.47;5.57;;;;;;;11.12;92.81;102367.69;5262484;28;20029;-68
2023/05/31 01:03:26;;;;;;;6.88;5.85;;;;;;;11.12;93.06;102371.19;5262375;28;20048;-67
2023/05/31 01:05:58;;;;;;;6.83;6.07;;;;;;;11.13;92.76;102372.91;5262384;28;20095;-67
2023/05/31 01:08:29;;;;;;;7.83;6.60;;;;;;;11.07;93.48;102371.97;5261926;28;20041;-66
2023/05/31 01:11:09;;;;;;;7.77;6.27;;;;;;;11.10;94.43;102375.50;5262128;28;20025;-67
2023/05/31 01:13:58;;;;;;;6.72;5.90;;;;;;;11.12;94.22;102380.72;5262072;28;20117;-67
2023/05/31 01:16:38;;;;;;;10.45;6.15;;;;;;;11.10;94.44;102380.72;5262232;28;20033;-67
2023/05/31 01:19:20;;;;;;;13.00;6.40;;;;;;;11.00;94.85;102376.25;5262073;28;20086;-67
2023/05/31 01:22:14;;;;;;;9.85;5.88;;;;;;;10.91;94.84;102374.41;5262224;28;20400;-67
2023/05/31 01:25:04;;;;;;;7.78;5.93;;;;;;;10.94;95.21;102378.81;5262186;28;20486;-67
2023/05/31 01:27:37;;;;;;;6.43;5.70;;;;;;;10.95;94.96;102378.81;5262136;28;20302;-67
2023/05/31 01:30:10;;;;;;;8.75;6.40;;;;;;;10.95;96.02;102378.81;5261985;28;20056;-67
2023/05/31 01:32:42;;;;;;;10.07;6.80;;;;;;;10.91;96.46;102370.94;5242962;28;20380;-67
2023/05/31 01:35:14;;;;;;;10.10;6.63;;;;;;;10.91;96.75;102373.53;5240881;28;20041;-68
2023/05/31 01:37:45;;;;;;;8.70;6.13;;;;;;;10.87;97.04;102369.16;5240657;28;20025;-67
2023/05/31 01:40:17;;;;;;;9.13;6.67;;;;;;;10.79;96.83;102365.56;5239557;28;20295;-68
2023/05/31 01:42:50;;;;;;;8.18;6.97;;;;;;;10.72;97.23;102364.63;5241313;28;20116;-67
2023/05/31 01:45:23;;;;;;;10.40;6.63;;;;;;;10.74;97.57;102368.16;5240920;28;20042;-66
2023/05/31 01:48:01;;;;;;;6.78;6.07;;;;;;;10.71;97.92;102365.50;5241226;28;20036;-67
2023/05/31 01:50:36;;;;;;;7.50;6.40;;;;;;;10.79;98.80;102366.47;5242269;28;20100;-65
2023/05/31 01:53:08;;;;;;;8.88;5.93;;;;;;;10.61;98.54;102368.84;5245131;28;20061;-67
2023/05/31 01:55:42;;;;;;;11.07;7.40;;;;;;;10.72;98.88;102372.44;5243915;28;20064;-67
2023/05/31 01:58:16;;;;;;;10.35;6.85;;;;;;;10.82;99.04;102358.69;5243530;28;20132;-66
2023/05/31 02:00:48;;;;;;;9.10;6.75;;;;;;;10.64;99.00;102361.94;5244684;28;20041;-67
2023/05/31 02:03:19;;;;;;;9.88;6.93;;;;;;;10.70;99.37;102348.94;5244910;28;20048;-67
2023/05/31 02:06:00;;;;;;;9.07;7.03;;;;;;;10.58;99.88;102357.50;5245085;28;20037;-67
2023/05/31 02:08:32;;;;;;;9.93;7.28;;;;;;;10.64;99.84;102358.44;5244442;28;20384;-66
2023/05/31 02:11:03;;;;;;;12.30;7.13;;;;;;;10.66;100.00;102354.09;5244827;28;20037;-67
2023/05/31 02:13:35;;;;;;;10.20;7.20;;;;;;;10.57;100.00;102353.16;5244746;28;20065;-67
2023/05/31 02:16:07;;;;;;;9.80;7.43;;;;;;;10.56;100.00;102355.72;5244719;28;20075;-67
2023/05/31 02:18:38;;;;;;;8.23;7.30;;;;;;;10.62;100.00;102345.38;5244126;28;20091;-67
2023/05/31 02:21:10;;;;;;;9.40;8.03;;;;;;;10.54;100.00;102344.41;5244600;28;20823;-67
2023/05/31 02:23:41;;;;;;;8.50;7.60;;;;;;;10.67;100.00;102346.31;5244872;28;20041;-68
2023/05/31 02:26:12;;;;;;;10.27;7.40;;;;;;;10.57;100.00;102347.94;5243164;28;20037;-68
2023/05/31 02:28:44;;;;;;;7.90;6.77;;;;;;;10.48;100.00;102353.06;5244429;28;20094;-67
2023/05/31 02:31:16;;;;;;;10.50;8.43;;;;;;;10.44;100.00;102346.03;5243177;28;20524;-68
2023/05/31 02:33:48;;;;;;;9.00;7.80;;;;;;;10.44;100.00;102350.38;5244360;28;20033;-67
2023/05/31 02:36:19;;;;;;;10.60;8.23;;;;;;;10.45;100.00;102347.78;5243273;28;20033;-68
2023/05/31 02:38:50;;;;;;;9.87;7.73;;;;;;;10.43;100.00;102344.28;5243767;28;20064;-67
2023/05/31 02:41:22;;;;;;;10.40;8.17;;;;;;;10.41;100.00;102351.22;5244225;28;20029;-68
2023/05/31 02:43:53;;;;;;;11.93;7.40;;;;;;;10.36;100.00;102350.28;5244264;28;20034;-67
2023/05/31 02:46:25;;;;;;;10.30;7.90;;;;;;;10.29;100.00;102345.78;5244206;28;20029;-67
2023/05/31 02:48:56;;;;;;;8.83;7.93;;;;;;;10.26;100.00;102349.25;5244060;28;20057;-67
2023/05/31 02:51:28;;;;;;;14.63;8.03;;;;;;;10.16;100.00;102355.19;5244000;28;20099;-67
2023/05/31 02:53:59;;;;;;;8.53;7.53;;;;;;;10.27;100.00;102347.50;5243719;28;20025;-66
2023/05/31 02:56:30;;;;;;;9.53;7.43;;;;;;;10.15;100.00;102340.41;5243678;28;20044;-66
2023/05/31 02:59:02;;;;;;;10.47;8.07;;;;;;;10.09;100.00;102346.38;5243825;28;20026;-67
2023/05/31 03:01:34;;;;;;;9.33;7.83;;;;;;;10.04;100.00;102348.06;5243630;28;20030;-66
2023/05/31 03:04:05;;;;;;;11.97;8.67;;;;;;;10.06;100.00;102356.75;5243785;28;20033;-67
2023/05/31 03:06:36;;;;;;;10.83;8.97;;;;;;;10.03;100.00;102355.00;5243670;28;20107;-68
2023/05/31 03:09:08;;;;;;;11.40;8.57;;;;;;;10.04;100.00;102356.75;5243282;28;20034;-67
2023/05/31 03:11:39;;;;;;;10.03;8.73;;;;;;;10.06;100.00;102348.94;5243588;28;20068;-68
2023/05/31 03:14:11;;;;;;;13.77;9.50;;;;;;;9.98;100.00;102355.78;5243544;28;20061;-67
2023/05/31 03:16:43;;;;;;;11.88;8.80;;;;;;;9.97;100.00;102354.91;5243460;28;20079;-66
2023/05/31 03:19:14;;;;;;;12.63;7.90;;;;;;;10.00;100.00;102357.56;5243320;28;20058;-66
2023/05/31 03:21:46;;;;;;;12.23;9.00;;;;;;;9.95;100.00;102355.72;5242378;28;20084;-68
2023/05/31 03:24:17;;;;;;;15.00;9.70;;;;;;;9.94;100.00;102354.88;5243505;28;20120;-66
2023/05/31 03:26:49;;;;;;;12.07;8.60;;;;;;;9.92;100.00;102355.69;5225786;28;20037;-67
2023/05/31 03:29:20;;;;;;;10.67;9.50;;;;;;;9.93;100.00;102350.50;5243876;28;20084;-67
2023/05/31 03:31:51;;;;;;;13.37;9.13;;;;;;;10.01;100.00;102348.00;5243539;28;20048;-67
2023/05/31 03:34:24;;;;;;;11.90;9.53;;;;;;;9.86;100.00;102346.94;5243108;28;20112;-67
2023/05/31 03:36:55;;;;;;;13.10;8.55;;;;;;;9.84;100.00;102343.44;5243204;28;20034;-67
2023/05/31 03:39:27;;;;;;;11.53;9.17;;;;;;;9.91;100.00;102353.94;5242742;28;20073;-66
2023/05/31 03:42:00;;;;;;;10.00;8.77;;;;;;;9.97;100.00;102344.50;5241651;28;20502;-67
2023/05/31 03:44:31;;;;;;;10.68;9.10;;;;;;;9.85;100.00;102341.69;5242945;28;20483;-67
2023/05/31 03:47:03;;;;;;;13.30;9.53;;;;;;;9.88;100.00;102351.28;5242911;28;20042;-67
2023/05/31 03:49:34;;;;;;;13.23;9.43;;;;;;;9.82;100.00;102350.34;5242883;28;20026;-67
2023/05/31 03:52:08;;;;;;;12.20;10.00;;;;;;;9.80;100.00;102346.81;5241437;28;20118;-67
2023/05/31 03:54:40;;;;;;;11.40;9.80;;;;;;;9.92;100.00;102348.78;5242760;28;20108;-68
2023/05/31 03:57:11;;;;;;;14.50;9.87;;;;;;;9.81;100.00;102352.94;5242790;28;20176;-68
2023/05/31 03:59:43;;;;;;;14.23;9.40;;;;;;;9.78;100.00;102345.94;5241423;28;20480;-67
2023/05/31 04:02:14;;;;;;;14.03;9.77;;;;;;;9.74;100.00;102349.38;5242787;28;20033;-68
2023/05/31 04:04:45;;;;;;;12.97;9.97;;;;;;;9.82;100.00;102350.34;5242293;28;20057;-67
2023/05/31 04:07:17;;;;;;;14.40;11.13;;;;;;;9.81;100.00;102346.00;5242531;28;20105;-68
2023/05/31 04:09:48;;;;;;;20.80;10.63;;;;;;;9.84;100.00;102347.78;5242049;28;20116;-66
2023/05/31 04:12:19;;;;;;;14.13;10.30;;;;;;;9.84;100.00;102348.66;5242380;28;20072;-67
2023/05/31 04:14:51;;;;;;;14.93;11.03;;;;;;;9.93;100.00;102341.81;5241635;28;20029;-67
2023/05/31 04:17:22;;;;;;;14.93;10.90;;;;;;;9.99;100.00;102345.38;5242101;28;20097;-66
2023/05/31 04:19:53;;;;;;;14.13;10.67;;;;;;;9.98;100.00;102345.38;5241875;28;20517;-67
2023/05/31 04:22:25;;;;;;;13.93;11.17;;;;;;;10.13;100.00;102348.19;5242294;28;20037;-67
2023/05/31 04:24:56;;;;;;;13.43;10.87;;;;;;;10.07;100.00;102345.50;5242156;28;20044;-66
2023/05/31 04:27:30;;;;;;;13.80;11.07;;;;;;;10.08;100.00;102342.06;5241883;28;20485;-66
2023/05/31 04:30:01;;;;;;;12.82;10.77;;;;;;;10.12;100.00;102349.03;5242065;28;20037;-67
2023/05/31 04:32:36;;;;;;;13.93;12.10;;;;;;;10.19;100.00;102350.91;5241911;28;20033;-67
2023/05/31 04:35:08;;;;;;;14.90;12.63;;;;;;;10.16;100.00;102360.41;5240700;28;20097;-67
2023/05/31 04:37:39;;;;;;;15.23;11.87;;;;;;;10.24;100.00;102350.97;5242025;28;20499;-66
2023/05/31 04:40:11;;;;;;;16.57;11.83;;;;;;;10.21;100.00;102349.19;5241325;28;20276;-66
2023/05/31 04:42:42;;;;;;;14.23;12.03;;;;;;;10.25;100.00;102355.31;5240815;28;20029;-65
2023/05/31 04:45:15;;;;;;;15.20;11.60;;;;;;;10.31;100.00;102354.53;5241562;28;20060;-66
2023/05/31 04:47:46;;;;;;;;;;;;;;;10.36;100.00;102355.50;5241660;28;20044;-66
2023/05/31 04:50:18;;;;;;;17.25;12.40;;;;;;;10.40;100.00;102354.69;5261718;28;19940;-67
2023/05/31 04:52:51;;;;;;;13.10;11.70;;;;;;;10.44;100.00;102355.59;5262503;28;20119;-66
2023/05/31 04:55:22;;;;;;;;;;;;;;;10.50;100.00;102348.72;5262848;28;20480;-66
2023/05/31 04:57:54;;;;;;;16.42;12.88;;;;;;;10.56;100.00;102355.72;5261925;28;19960;-66
2023/05/31 05:00:25;;;;;;;14.27;12.47;;;;;;;10.62;100.00;102354.94;5262566;28;20550;-66
2023/05/31 05:02:56;;;;;;;17.40;12.23;;;;;;;10.66;100.00;102354.09;5262493;28;20440;-67
2023/05/31 05:05:27;;;;;;;18.57;13.23;;;;;;;10.71;100.00;102345.50;5262143;28;20050;-67
2023/05/31 05:07:59;;;;;;;17.17;13.47;;;;;;;10.82;100.00;102353.47;5262244;28;20041;-67
2023/05/31 05:10:30;;;;;;;17.77;12.83;;;;;;;10.86;100.00;102356.97;5261903;28;20029;-67
2023/05/31 05:13:02;;;;;;;15.37;13.40;;;;;;;10.90;100.00;102357.03;5261953;28;20473;-66
2023/05/31 05:15:33;;;;;;;16.27;12.90;;;;;;;10.97;100.00;102354.50;5262491;28;20040;-67
2023/05/31 05:18:05;;;;;;;17.60;13.73;;;;;;;11.01;100.00;102357.16;5260972;28;20039;-67
2023/05/31 05:20:36;;;;;;;17.90;14.80;;;;;;;11.05;100.00;102358.91;5261991;28;20104;-67
2023/05/31 05:23:08;;;;;;;18.13;14.47;;;;;;;11.18;100.00;102357.31;5262376;28;20069;-66
2023/05/31 05:25:39;;;;;;;16.10;14.47;;;;;;;11.27;100.00;102359.13;5263712;28;20036;-68
2023/05/31 05:28:11;;;;;;;18.47;13.10;;;;;;;11.36;100.00;102360.97;5266404;28;20040;-67
2023/05/31 05:30:44;;;;;;;18.23;13.97;;;;;;;11.46;100.00;102373.22;5266426;28;20021;-68
2023/05/31 05:33:16;;;;;;;19.40;14.48;;;;;;;11.47;100.00;102368.00;5266248;28;20112;-66
2023/05/31 05:35:47;;;;;;;17.80;13.80;;;;;;;11.55;100.00;102364.63;5264842;28;20115;-67
2023/05/31 05:38:20;;;;;;;20.83;15.23;;;;;;;11.71;100.00;102363.88;5266323;28;20040;-67
2023/05/31 05:40:52;;;;;;;16.65;14.93;;;;;;;11.76;100.00;102367.38;5265887;28;20388;-67
2023/05/31 05:43:24;;;;;;;17.77;14.95;;;;;;;11.83;100.00;102365.69;5266172;28;20488;-67
2023/05/31 05:45:55;;;;;;;19.73;14.63;;;;;;;11.93;100.00;102369.28;5266220;28;20029;-67
2023/05/31 05:48:27;;;;;;;18.77;14.50;;;;;;;11.96;100.00;102367.56;5266136;28;20025;-67
2023/05/31 05:50:58;;;;;;;21.03;14.07;;;;;;;12.08;100.00;102368.53;5265971;28;20084;-67
2023/05/31 05:53:30;;;;;;;17.87;13.80;;;;;;;12.16;100.00;102372.06;5265921;28;20032;-67
2023/05/31 05:56:01;;;;;;;16.60;14.00;;;;;;;12.22;100.00;102372.09;5265860;28;20040;-67
2023/05/31 05:58:33;;;;;;;16.80;13.90;;;;;;;12.28;99.63;102377.34;5265929;28;20067;-68
2023/05/31 06:01:04;;;;;;;15.77;13.37;;;;;;;12.40;98.97;102374.78;5266009;28;20040;-66
2023/05/31 06:03:35;;;;;;;18.50;13.90;;;;;;;12.44;98.35;102377.44;5265937;28;20040;-66
2023/05/31 06:06:07;;;;;;;16.93;14.30;;;;;;;12.45;96.92;102376.56;5264998;28;20049;-67
2023/05/31 06:08:38;;;;;;;17.07;14.63;;;;;;;12.57;96.65;102376.59;5264359;28;20124;-67
2023/05/31 06:11:10;;;;;;;17.77;13.93;;;;;;;12.61;96.20;102375.78;5264389;28;20032;-67
2023/05/31 06:13:45;;;;;;;19.53;14.27;;;;;;;12.62;95.97;102374.03;5264703;28;20107;-67
2023/05/31 06:16:20;;;;;;;16.05;13.82;;;;;;;12.82;96.23;102372.34;5265713;28;20388;-67
2023/05/31 06:18:53;;;;;;;17.60;14.90;;;;;;;12.86;95.43;102370.63;5263966;28;20061;-67
2023/05/31 06:21:24;;;;;;;18.45;14.70;;;;;;;12.92;95.13;102370.66;5265635;28;20441;-67
2023/05/31 06:23:55;;;;;;;16.93;13.17;;;;;;;13.02;94.12;102374.16;5265740;28;20029;-67
2023/05/31 06:26:27;;;;;;;18.53;13.63;;;;;;;13.14;94.08;102376.81;5265635;28;20049;-67
2023/05/31 06:29:01;;;;;;;19.93;14.57;;;;;;;13.24;93.59;102375.94;5265456;28;20048;-67
2023/05/31 06:31:33;;;;;;;21.83;14.55;;;;;;;13.31;94.05;102379.44;5265127;28;20083;-67
2023/05/31 06:34:05;;;;;;;17.50;13.80;;;;;;;13.37;93.97;102381.25;5264115;28;20469;-67
2023/05/31 06:36:36;;;;;;;16.80;12.95;;;;;;;13.53;92.08;102380.38;5264794;28;20021;-66
2023/05/31 06:39:08;;;;;;;18.60;14.00;;;;;;;13.59;93.30;102376.91;5264783;28;20044;-67
2023/05/31 06:41:40;;;;;;;20.88;13.73;;;;;;;13.82;91.17;102383.00;5265266;28;20537;-67
2023/05/31 06:44:12;;;;;;;16.50;13.00;;;;;;;13.83;89.54;102387.38;5263902;28;20033;-67
2023/05/31 06:46:43;;;;;;;16.03;13.40;;;;;;;13.91;90.46;102381.22;5265220;28;20029;-67
2023/05/31 06:49:14;;;;;;;16.17;13.17;;;;;;;14.03;88.98;102395.19;5265105;28;20037;-67
2023/05/31 06:51:46;;;;;;;17.50;13.80;;;;;;;14.01;87.85;102389.09;5263881;28;20086;-67
2023/05/31 06:54:17;;;;;;;19.20;13.37;;;;;;;14.01;87.60;102386.47;5264958;28;20052;-67
2023/05/31 06:56:49;;;;;;;14.50;12.17;;;;;;;14.14;87.36;102391.69;5264681;28;20092;-66
2023/05/31 06:59:20;;;;;;;15.10;13.00;;;;;;;14.31;87.47;102392.53;5264870;28;20064;-67
2023/05/31 07:01:53;;;;;;;15.97;12.37;;;;;;;14.31;88.21;102381.16;5265047;28;20033;-66
2023/05/31 07:04:25;;;;;;;19.48;13.50;;;;;;;14.49;87.29;102388.97;5264734;28;20029;-67
2023/05/31 07:06:56;;;;;;;18.23;12.53;;;;;;;14.63;86.39;102388.94;5264688;28;20032;-66
2023/05/31 07:09:28;;;;;;;17.93;13.00;;;;;;;14.80;85.82;102388.88;5264293;28;20037;-67
2023/05/31 07:12:00;;;;;;;15.67;12.70;;;;;;;14.83;85.63;102378.38;5264600;28;20025;-67
2023/05/31 07:14:31;;;;;;;16.92;12.32;;;;;;;14.82;83.12;102378.38;5264732;28;20111;-67
2023/05/31 07:17:03;;;;;;;19.57;12.63;;;;;;;14.85;83.56;102381.84;5264430;28;20029;-66
2023/05/31 07:19:45;;;;;;;15.73;12.57;;;;;;;15.05;83.61;102380.88;5263956;28;20480;-66
2023/05/31 07:22:17;;;;;;;14.25;11.77;;;;;;;15.16;83.99;102384.28;5264318;28;20028;-68
2023/05/31 07:24:48;;;;;;;16.23;12.07;;;;;;;15.19;80.83;102388.66;5264211;28;20037;-67
2023/05/31 07:27:21;;;;;;;17.77;12.33;;;;;;;15.25;81.45;102373.75;5264345;28;20363;-67
2023/05/31 07:29:53;;;;;;;14.05;12.55;;;;;;;15.40;80.77;102374.50;5264134;28;20037;-67
2023/05/31 07:32:24;;;;;;;21.37;12.20;;;;;;;15.49;79.29;102377.94;5264391;28;20025;-66
2023/05/31 07:34:55;;;;;;;14.90;12.27;;;;;;;15.71;80.46;102366.38;5263829;28;20103;-67
2023/05/31 07:37:27;;;;;;;18.07;12.27;;;;;;;15.77;77.68;102368.97;5263940;28;20408;-66
2023/05/31 07:39:58;;;;;;;19.30;11.63;;;;;;;15.89;77.88;102375.88;5263724;28;20066;-66
2023/05/31 07:42:31;;;;;;;14.93;12.07;;;;;;;15.91;77.45;102372.34;5264052;28;20029;-67
2023/05/31 07:45:03;;;;;;;17.77;11.50;;;;;;;15.90;76.41;102370.59;5263954;28;20295;-67
2023/05/31 07:47:35;;;;;;;16.80;10.60;;;;;;;16.15;75.81;102373.88;5263311;28;20079;-66
2023/05/31 07:50:07;;;;;;;15.47;11.73;;;;;;;16.20;76.26;102368.56;5263703;28;20033;-68
2023/05/31 07:52:38;;;;;;;18.52;13.23;;;;;;;16.33;75.50;102372.78;5264092;28;20035;-67
2023/05/31 07:55:09;;;;;;;18.33;12.07;;;;;;;16.37;76.04;102374.50;5262546;28;20028;-68
2023/05/31 07:57:41;;;;;;;18.67;12.00;;;;;;;16.48;74.87;102366.47;5263618;28;20040;-67
2023/05/31 08:00:15;;;;;;;13.33;11.27;;;;;;;16.68;75.76;102368.84;5262195;28;20086;-67
2023/05/31 08:02:46;;;;;;;19.80;13.20;;;;;;;16.55;73.01;102364.63;5263618;28;20037;-67
2023/05/31 08:05:18;;;;;;;16.30;11.87;;;;;;;16.77;72.33;102366.06;5263499;28;20056;-67
2023/05/31 08:07:49;;;;;;;14.80;11.50;;;;;;;16.79;73.30;102363.41;5263723;28;20033;-66
2023/05/31 08:10:21;;;;;;;15.70;10.80;;;;;;;16.97;71.72;102358.81;5263219;28;20128;-67
2023/05/31 08:12:52;;;;;;;14.87;11.97;;;;;;;17.23;71.97;102350.56;5263311;28;20057;-66
2023/05/31 08:15:23;;;;;;;15.03;11.90;;;;;;;17.44;72.97;102352.84;5263210;28;20033;-66
2023/05/31 08:17:55;;;;;;;21.23;11.70;;;;;;;17.65;71.92;102354.22;5262821;28;20033;-67
2023/05/31 08:20:26;;;;;;;13.27;10.60;;;;;;;17.74;69.71;102345.31;5263450;28;20140;-66
2023/05/31 08:22:58;;;;;;;13.33;10.67;;;;;;;17.81;68.46;102353.97;5262802;28;20029;-67
2023/05/31 08:25:29;;;;;;;16.27;10.50;;;;;;;17.83;66.93;102353.03;5263110;28;20117;-67
2023/05/31 08:28:00;;;;;;;15.23;11.60;;;;;;;17.99;67.12;102355.44;5262968;28;20098;-68
2023/05/31 08:30:32;;;;;;;14.83;11.67;;;;;;;18.07;67.13;102347.38;5262751;28;20112;-67
2023/05/31 08:33:03;;;;;;;19.50;11.23;;;;;;;18.04;66.32;102356.22;5262968;28;20048;-66
2023/05/31 08:35:34;;;;;;;16.00;11.77;;;;;;;18.19;68.92;102350.66;5263127;28;20095;-66
2023/05/31 08:38:06;;;;;;;14.83;11.07;;;;;;;18.52;69.62;102350.84;5262896;28;20033;-67
2023/05/31 08:40:38;;;;;;;17.83;11.30;;;;;;;18.57;65.36;102351.59;5262595;28;20555;-67
2023/05/31 08:43:15;;;;;;;15.25;12.35;;;;;;;18.49;64.15;102348.25;5261663;28;20024;-67
2023/05/31 08:45:49;;;;;;;16.50;10.68;;;;;;;18.54;63.54;102356.94;5261441;28;20118;-67
2023/05/31 08:48:30;;;;;;;14.65;10.50;;;;;;;18.73;65.43;102349.50;5262890;28;20037;-66
2023/05/31 08:51:05;;;;;;;12.57;10.38;;;;;;;18.86;64.94;102351.91;5262970;28;20028;-65
2023/05/31 08:53:38;;;;;;;18.23;12.02;;;;;;;18.68;61.88;102347.88;5262826;28;20043;-67
2023/05/31 08:56:10;;;;;;;17.23;10.75;;;;;;;18.99;64.98;102339.28;5262741;28;20048;-67
2023/05/31 08:58:42;;;;;;;13.40;8.50;;;;;;;19.10;60.93;102340.78;5262133;28;20029;-67
2023/05/31 09:01:14;;;;;;;15.32;9.15;;;;;;;19.24;61.53;102337.81;5262519;28;20029;-68
2023/05/31 09:03:46;;;;;;;14.88;10.35;;;;;;;19.09;59.75;102338.16;5262490;28;20032;-67
2023/05/31 09:06:18;;;;;;;14.77;9.27;;;;;;;19.38;62.66;102333.94;5262473;28;20382;-66
2023/05/31 09:08:50;;;;;;;15.17;8.93;;;;;;;19.56;61.63;102335.25;5262080;28;20076;-67
2023/05/31 09:11:23;;;;;;;16.92;9.45;;;;;;;19.83;59.56;102339.84;5262580;28;20045;-66
2023/05/31 09:13:54;;;;;;;15.68;8.88;;;;;;;20.07;59.64;102333.94;5262317;28;20075;-67
2023/05/31 09:16:28;;;;;;;13.35;8.68;;;;;;;20.16;57.38;102334.53;5262297;28;20041;-68
2023/05/31 09:19:06;;;;;;;14.13;9.13;;;;;;;20.48;58.44;102334.50;5261949;28;20107;-68
2023/05/31 09:21:44;;;;;;;12.63;8.85;;;;;;;20.43;56.30;102328.47;5262505;28;20111;-67
2023/05/31 09:24:16;;;;;;;18.15;9.50;;;;;;;20.39;54.49;102330.34;5262067;28;20060;-67
2023/05/31 09:26:52;;;;;;;20.15;8.65;;;;;;;20.65;56.84;102326.94;5262310;28;20427;-67
2023/05/31 09:29:23;;;;;;;12.00;7.80;;;;;;;20.86;55.82;102313.94;5262634;28;20472;-67
2023/05/31 09:32:11;;;;;;;15.20;7.63;;;;;;;20.90;55.09;102320.91;5262255;28;20029;-67
2023/05/31 09:34:43;;;;;;;16.27;7.60;;;;;;;21.09;55.73;102315.84;5262424;28;20060;-67
2023/05/31 09:37:24;;;;;;;12.57;8.10;;;;;;;21.19;55.35;102305.81;5262298;28;20060;-66
2023/05/31 09:39:56;;;;;;;12.50;7.43;;;;;;;21.43;57.29;102306.75;5261930;28;20120;-67
2023/05/31 09:42:29;;;;;;;11.43;7.40;;;;;;;21.26;51.54;102302.91;5261030;28;20366;-67
2023/05/31 09:45:00;;;;;;;11.98;7.47;;;;;;;21.53;52.38;102299.41;5262207;28;20053;-68
2023/05/31 09:47:32;;;;;;;10.77;8.50;;;;;;;21.61;51.47;102298.22;5262234;28;20076;-68
2023/05/31 09:50:03;;;;;;;20.83;8.80;;;;;;;21.66;49.12;102298.03;5262209;28;20056;-68
2023/05/31 09:52:38;;;;;;;11.50;7.82;;;;;;;21.80;51.28;102290.47;5262197;28;20033;-67
2023/05/31 09:55:12;;;;;;;11.45;7.85;;;;;;;21.92;50.85;102290.94;5261969;28;20028;-67
2023/05/31 09:57:45;;;;;;;15.40;7.97;;;;;;;22.16;49.38;102294.47;5261979;28;20040;-68
2023/05/31 10:00:20;;;;;;;12.75;7.72;;;;;;;22.59;49.84;102298.16;5261594;28;20061;-67
2023/05/31 10:02:53;;;;;;;12.43;6.60;;;;;;;23.89;47.00;102290.09;5261595;28;20086;-67
2023/05/31 10:05:25;;;;;;;9.88;6.10;;;;;;;25.09;43.00;102290.63;5262051;28;20041;-67
2023/05/31 10:07:57;;;;;;;11.50;6.07;;;;;;;26.04;41.68;102281.31;5261898;28;20064;-67
2023/05/31 10:10:28;;;;;;;10.93;6.50;;;;;;;26.07;38.72;102285.63;5261341;28;20037;-67
2023/05/31 10:13:02;;;;;;;12.40;5.73;;;;;;;26.30;36.68;102287.03;5265313;28;20036;-67
2023/05/31 10:15:35;;;;;;;10.15;5.90;;;;;;;26.74;37.91;102281.88;5265777;28;20369;-67
2023/05/31 10:18:10;;;;;;;8.82;6.05;;;;;;;27.01;35.90;102281.19;5265463;28;20350;-68
2023/05/31 10:20:53;;;;;;;12.40;6.10;;;;;;;27.06;36.48;102272.88;5266025;28;20049;-68
2023/05/31 10:23:27;;;;;;;10.95;5.97;;;;;;;27.99;33.83;102277.06;5265294;28;20039;-68
2023/05/31 10:26:15;;;;;;;18.00;6.20;;;;;;;27.56;34.31;102271.69;5264338;28;20104;-68
2023/05/31 10:29:10;;;;;;;12.27;5.80;;;;;;;28.30;36.00;102268.91;5265660;28;20033;-68
2023/05/31 10:31:49;;;;;;;9.82;5.63;;;;;;;28.81;33.68;102257.56;5264345;28;20053;-68
2023/05/31 10:34:25;;;;;;;13.80;5.70;;;;;;;27.03;32.11;102255.22;5265329;28;20044;-68
2023/05/31 10:36:57;;;;;;;9.60;4.55;;;;;;;27.95;34.06;102250.56;5265300;28;20044;-68
2023/05/31 10:39:30;;;;;;;;;;;;;;;29.96;32.96;102251.41;5265102;28;20048;-68
2023/05/31 10:42:18;;;;;;;9.98;4.60;;;;;;;29.49;32.86;102239.50;5265216;28;20419;-68
2023/05/31 10:45:18;;;;;;;12.98;4.45;;;;;;;29.20;31.71;102237.88;5265120;28;20353;-67
2023/05/31 10:48:17;;;;;;;12.05;3.83;;;;;;;29.76;30.51;102232.19;5261971;28;20045;-68
2023/05/31 10:51:00;;;;;;;7.75;3.90;;;;;;;29.24;28.19;102227.81;5265029;28;20029;-67
2023/05/31 10:53:39;;;;;;;11.35;3.78;;;;;;;29.61;29.51;102220.69;5263801;28;20056;-67
2023/05/31 10:56:13;;;;;;;9.13;4.55;;;;;;;29.57;28.21;102229.94;5264911;28;20025;-67
2023/05/31 10:58:50;;;;;;;10.50;4.22;;;;;;;30.15;30.93;102219.50;5264938;28;20031;-67
2023/05/31 11:01:21;;;;;;;9.45;3.42;;;;;;;31.19;26.59;102220.72;5265000;28;20377;-68
2023/05/31 11:03:55;;;;;;;8.57;4.28;;;;;;;30.90;27.33;102221.13;5265057;28;20029;-68
2023/05/31 11:06:36;;;;;;;10.43;4.30;;;;;;;31.11;29.59;102220.47;5264961;28;20029;-68
2023/05/31 11:09:12;;;;;;;10.63;4.35;;;;;;;31.81;26.27;102232.03;5264436;28;20418;-68
2023/05/31 11:11:46;;;;;;;11.85;3.90;;;;;;;32.01;27.65;102216.94;5264627;28;20021;-67
2023/05/31 11:14:26;;;;;;;9.25;4.20;;;;;;;31.60;26.88;102222.00;5264616;28;20082;-68
2023/05/31 11:16:59;;;;;;;10.02;3.95;;;;;;;31.76;32.16;102218.06;5264699;28;20468;-69
2023/05/31 11:19:35;;;;;;;9.40;4.93;;;;;;;32.45;26.77;102222.38;5264342;28;20079;-67
2023/05/31 11:22:13;;;;;;;6.63;3.38;;;;;;;33.34;24.29;102203.97;5264714;28;20385;-67
2023/05/31 11:24:50;;;;;;;7.20;3.67;;;;;;;32.34;24.24;102210.59;5264485;28;20021;-68
2023/05/31 11:27:33;;;;;;;9.25;4.15;;;;;;;33.24;24.83;102222.00;5264044;28;20029;-67
2023/05/31 11:30:13;;;;;;;9.85;4.50;;;;;;;33.12;23.89;102204.97;5263985;28;20036;-68
2023/05/31 11:32:50;;;;;;;6.75;3.90;;;;;;;33.02;23.91;102212.16;5264309;28;20033;-67
2023/05/31 11:35:22;;;;;;;12.27;4.10;;;;;;;32.04;24.72;102202.34;5263933;28;20025;-67
2023/05/31 11:38:00;;;;;;;11.02;4.40;;;;;;;33.21;25.35;102211.44;5263907;28;20047;-68
2023/05/31 11:40:33;;;;;;;10.20;4.18;;;;;;;32.59;22.90;102207.69;5263540;28;20105;-68